Terminal Aerodrome Forecast
Issued by NWS Wichita, KS

Home | Current Version | Previous Version | Text Only | Print | Product List | Glossary On
Versions: 1 2 3 4 5 6 7 8 9 10 11 12 13 14 15 16
000
FTUS43 KICT 211335 AAA
TAFICT
TAF AMD
KICT 211335Z 2114/2212 24007KT P6SM SKC
     FM211900 25009KT P6SM SCT120
     FM220200 19005KT P6SM SCT150
     FM220700 20005KT P6SM SCT045 BKN100=

USA.gov is the U.S. government's official web portal to all federal, state and local government web resources and services.